Gng Concord3 — VRNG4 — position and weather

sailwx.info

Track history (hours):
 
Tides and Currents Weather Stations Pressure Air Temp Water Temp Dewpoint Dewpoint Depression Visibility Wind Speed Wind Dir Waves Ship Positions

Gng Concord3

Last reported at 2017-Sep-03 20:13 UTC. Time now 2017-Sep-24 10:39 UTC.
Position N 25°25' W 079°35'.
Warning: this ship's position is 20 days out of date.

Length 225 m; draft 7.9 m.

Type: Cargo ship. MMSI: 477712200.

Date/timePositionNaut miles runAvg speedWind from/ knotsBaromVisibWave heightAir tempDewpointWater temp
2017-Sep-03 20:13N 25°25' W 079°35'312.0
2017-Sep-03 19:59N 25°28' W 079°35'611.8
2017-Sep-03 19:30N 25°34' W 079°34'811.6
2017-Sep-03 18:49N 25°42' W 079°33'411.7
2017-Sep-03 18:30N 25°46' W 079°33'611.8
2017-Sep-03 18:00N 25°51' W 079°32'611.8
2017-Sep-03 17:30N 25°57' W 079°31'611.9
2017-Sep-03 17:00N 26°03' W 079°31'611.6
2017-Sep-03 16:30N 26°08' W 079°28'  
2017-Aug-27 05:26N 36°46' W 032°22'2914.3
2017-Aug-27 03:25N 36°50' W 031°46'6214.3
2017-Aug-26 23:04N 36°57' W 030°29'2014.1
2017-Aug-26 21:38N 36°60' W 030°04'1514.5
2017-Aug-26 20:36N 37°01' W 029°45'215.0
2017-Aug-26 20:28N 37°02' W 029°43'714.4
2017-Aug-26 19:58N 37°03' W 029°34'1713.8
2017-Aug-26 18:43N 37°05' W 029°12'314.3
2017-Aug-26 18:29N 37°05' W 029°08'714.5
2017-Aug-26 17:59N 37°06' W 028°59'714.3
2017-Aug-26 17:30N 37°07' W 028°51'713.9
2017-Aug-26 17:00N 37°08' W 028°42'713.6
2017-Aug-26 16:29N 37°09' W 028°33'714.0
2017-Aug-26 16:00N 37°10' W 028°25'714.1
2017-Aug-26 15:30N 37°10' W 028°16'713.9
2017-Aug-26 15:00N 37°11' W 028°08'1413.9
2017-Aug-26 14:00N 37°13' W 027°50'714.2
2017-Aug-26 13:30N 37°14' W 027°41'2213.8
2017-Aug-26 11:56N 37°17' W 027°14'613.7
2017-Aug-26 11:30N 37°17' W 027°07'714.4
2017-Aug-26 11:00N 37°18' W 026°58'713.9
2017-Aug-26 10:31N 37°19' W 026°49'713.7
2017-Aug-26 10:00N 37°20' W 026°41'714.2
2017-Aug-26 09:30N 37°21' W 026°32'714.1
2017-Aug-26 09:00N 37°22' W 026°23'714.1
2017-Aug-26 08:30N 37°23' W 026°14'714.4
2017-Aug-26 08:00N 37°23' W 026°05'714.8
2017-Aug-26 07:30N 37°24' W 025°56'713.9
2017-Aug-26 07:00N 37°25' W 025°47'713.6
2017-Aug-26 06:30N 37°26' W 025°39'714.2
2017-Aug-26 06:00N 37°27' W 025°30'714.3
2017-Aug-26 05:30N 37°28' W 025°21'713.7
2017-Aug-26 05:00N 37°29' W 025°13'713.6
2017-Aug-26 04:31N 37°29' W 025°04'713.8
2017-Aug-26 04:00N 37°29' W 024°55'713.5
2017-Aug-26 03:30N 37°29' W 024°47'713.1
2017-Aug-26 03:00N 37°28' W 024°39'713.5
2017-Aug-26 02:30N 37°28' W 024°30'713.6
2017-Aug-26 02:00N 37°27' W 024°22'713.4
2017-Aug-26 01:30N 37°26' W 024°13'713.2
2017-Aug-26 01:00N 37°25' W 024°05'713.4
2017-Aug-26 00:31N 37°25' W 023°57'713.6
2017-Aug-26 00:00N 37°24' W 023°48'713.9
2017-Aug-25 23:31N 37°23' W 023°39'713.8
2017-Aug-25 23:00N 37°23' W 023°31'  
Track history (hours):
 
Tides and Currents Weather Stations Pressure Air Temp Water Temp Dewpoint Dewpoint Depression Visibility Wind Speed Wind Dir Waves Ship Positions

Gng Concord3

Last reported at 2017-Sep-03 20:13 UTC. Time now 2017-Sep-24 10:39 UTC.
Position N 25°25' W 079°35'.
Warning: this ship's position is 20 days out of date.

Length 225 m; draft 7.9 m.

Type: Cargo ship. MMSI: 477712200.

Date/timePositionNaut miles runAvg speedWind from/ knotsBaromVisibWave heightAir tempDewpointWater temp
2017-Sep-03 20:13N 25°25' W 079°35'312.0
2017-Sep-03 19:59N 25°28' W 079°35'611.8
2017-Sep-03 19:30N 25°34' W 079°34'811.6
2017-Sep-03 18:49N 25°42' W 079°33'411.7
2017-Sep-03 18:30N 25°46' W 079°33'611.8
2017-Sep-03 18:00N 25°51' W 079°32'611.8
2017-Sep-03 17:30N 25°57' W 079°31'611.9
2017-Sep-03 17:00N 26°03' W 079°31'611.6
2017-Sep-03 16:30N 26°08' W 079°28'  
2017-Aug-27 05:26N 36°46' W 032°22'2914.3
2017-Aug-27 03:25N 36°50' W 031°46'6214.3
2017-Aug-26 23:04N 36°57' W 030°29'2014.1
2017-Aug-26 21:38N 36°60' W 030°04'1514.5
2017-Aug-26 20:36N 37°01' W 029°45'215.0
2017-Aug-26 20:28N 37°02' W 029°43'714.4
2017-Aug-26 19:58N 37°03' W 029°34'1713.8
2017-Aug-26 18:43N 37°05' W 029°12'314.3
2017-Aug-26 18:29N 37°05' W 029°08'714.5
2017-Aug-26 17:59N 37°06' W 028°59'714.3
2017-Aug-26 17:30N 37°07' W 028°51'713.9
2017-Aug-26 17:00N 37°08' W 028°42'713.6
2017-Aug-26 16:29N 37°09' W 028°33'714.0
2017-Aug-26 16:00N 37°10' W 028°25'714.1
2017-Aug-26 15:30N 37°10' W 028°16'713.9
2017-Aug-26 15:00N 37°11' W 028°08'1413.9
2017-Aug-26 14:00N 37°13' W 027°50'714.2
2017-Aug-26 13:30N 37°14' W 027°41'2213.8
2017-Aug-26 11:56N 37°17' W 027°14'613.7
2017-Aug-26 11:30N 37°17' W 027°07'714.4
2017-Aug-26 11:00N 37°18' W 026°58'713.9
2017-Aug-26 10:31N 37°19' W 026°49'713.7
2017-Aug-26 10:00N 37°20' W 026°41'714.2
2017-Aug-26 09:30N 37°21' W 026°32'714.1
2017-Aug-26 09:00N 37°22' W 026°23'714.1
2017-Aug-26 08:30N 37°23' W 026°14'714.4
2017-Aug-26 08:00N 37°23' W 026°05'714.8
2017-Aug-26 07:30N 37°24' W 025°56'713.9
2017-Aug-26 07:00N 37°25' W 025°47'713.6
2017-Aug-26 06:30N 37°26' W 025°39'714.2
2017-Aug-26 06:00N 37°27' W 025°30'714.3
2017-Aug-26 05:30N 37°28' W 025°21'713.7
2017-Aug-26 05:00N 37°29' W 025°13'713.6
2017-Aug-26 04:31N 37°29' W 025°04'713.8
2017-Aug-26 04:00N 37°29' W 024°55'713.5
2017-Aug-26 03:30N 37°29' W 024°47'713.1
2017-Aug-26 03:00N 37°28' W 024°39'713.5
2017-Aug-26 02:30N 37°28' W 024°30'713.6
2017-Aug-26 02:00N 37°27' W 024°22'713.4
2017-Aug-26 01:30N 37°26' W 024°13'713.2
2017-Aug-26 01:00N 37°25' W 024°05'713.4
2017-Aug-26 00:31N 37°25' W 023°57'713.6
2017-Aug-26 00:00N 37°24' W 023°48'713.9
2017-Aug-25 23:31N 37°23' W 023°39'713.8
2017-Aug-25 23:00N 37°23' W 023°31'  

Dump ship's entire track history